Time;durP1;ratioP1;P1;durP2;ratioP2;P2;SDS_P1;SDS_P2;PMS_P1;PMS_P2;Temp;Humidity;BMP_temperature;BMP_pressure;BME280_temperature;BME280_humidity;BME280_pressure;Samples;Min_cycle;Max_cycle;Signal;HPM_P1;HPM_P2
2023/09/17 06:00:07;;;;;;;0.95;0.85;;;27.50;20.20;;;;;;5009038;28;20053;-67
2023/09/17 06:02:35;;;;;;;3.73;1.20;;;27.50;19.80;;;;;;5022077;28;20064;-67
2023/09/17 06:05:03;;;;;;;2.15;1.05;;;27.50;19.80;;;;;;5013325;28;20586;-67
2023/09/17 06:07:30;;;;;;;1.30;1.00;;;27.40;19.80;;;;;;5032319;28;20061;-67
2023/09/17 06:09:57;;;;;;;1.20;1.10;;;27.40;20.10;;;;;;5015414;28;20072;-67
2023/09/17 06:12:24;;;;;;;2.45;0.90;;;27.40;20.00;;;;;;5065468;23;20134;-75
2023/09/17 06:14:52;;;;;;;1.40;1.05;;;27.30;19.90;;;;;;5081482;28;20039;-76
2023/09/17 06:17:19;;;;;;;1.95;0.90;;;27.40;19.90;;;;;;5074150;28;20055;-74
2023/09/17 06:19:46;;;;;;;2.47;0.90;;;27.30;20.00;;;;;;5083830;28;20032;-75
2023/09/17 06:22:13;;;;;;;0.80;0.80;;;27.30;19.90;;;;;;5027703;28;20483;-75
2023/09/17 06:24:40;;;;;;;1.10;0.90;;;27.30;19.90;;;;;;5053521;28;20049;-72
2023/09/17 06:27:08;;;;;;;1.40;1.00;;;27.30;20.70;;;;;;5072593;28;20367;-72
2023/09/17 06:29:35;;;;;;;2.55;1.00;;;27.30;20.60;;;;;;5071031;28;20040;-73
2023/09/17 06:32:03;;;;;;;1.88;1.00;;;27.30;20.50;;;;;;5068502;28;20341;-72
2023/09/17 06:34:30;;;;;;;1.30;0.90;;;27.30;20.40;;;;;;5051558;28;20033;-72
2023/09/17 06:36:58;;;;;;;1.23;1.00;;;27.20;20.10;;;;;;5053003;28;20083;-75
2023/09/17 06:39:25;;;;;;;1.30;0.93;;;27.20;20.40;;;;;;5053926;28;20035;-75
2023/09/17 06:41:52;;;;;;;1.25;0.90;;;27.20;20.60;;;;;;5037616;28;20620;-73
2023/09/17 06:44:19;;;;;;;2.40;0.90;;;27.10;20.40;;;;;;5072179;28;20029;-74
2023/09/17 06:46:47;;;;;;;0.75;0.75;;;27.10;20.00;;;;;;5071814;28;20044;-75
2023/09/17 06:49:14;;;;;;;1.50;0.98;;;27.10;19.70;;;;;;5051804;28;20349;-72
2023/09/17 06:51:41;;;;;;;1.08;0.95;;;27.10;19.40;;;;;;5053114;28;20085;-75
2023/09/17 06:54:09;;;;;;;1.45;1.10;;;27.00;19.40;;;;;;5053798;28;20079;-73
2023/09/17 06:56:36;;;;;;;0.93;0.90;;;27.00;19.50;;;;;;5071686;28;20039;-74
2023/09/17 06:59:03;;;;;;;1.00;0.90;;;26.90;19.80;;;;;;5070791;28;20036;-74
2023/09/17 07:01:31;;;;;;;0.95;0.85;;;26.90;20.00;;;;;;5051966;28;20622;-74
2023/09/17 07:03:58;;;;;;;2.00;1.10;;;26.90;20.10;;;;;;5053723;28;20037;-76
2023/09/17 07:06:25;;;;;;;1.27;1.10;;;26.90;20.40;;;;;;5069251;28;20068;-75
2023/09/17 07:08:54;;;;;;;2.45;1.70;;;26.80;21.40;;;;;;5053429;28;20402;-75
2023/09/17 07:11:21;;;;;;;4.25;2.17;;;26.80;25.90;;;;;;5069764;28;20081;-74
2023/09/17 07:13:50;;;;;;;4.45;1.88;;;26.60;27.00;;;;;;5071109;28;20158;-76
2023/09/17 07:16:18;;;;;;;9.93;1.92;;;26.50;27.90;;;;;;5037357;28;20356;-75
2023/09/17 07:18:46;;;;;;;5.95;2.20;;;26.40;29.00;;;;;;5070539;28;20114;-75
2023/09/17 07:21:13;;;;;;;5.07;2.13;;;26.30;29.30;;;;;;5052077;28;20458;-75
2023/09/17 07:23:40;;;;;;;6.53;2.17;;;26.20;30.00;;;;;;5070717;28;20329;-76
2023/09/17 07:26:09;;;;;;;6.68;2.40;;;26.10;30.40;;;;;;5040590;28;20033;-76
2023/09/17 07:28:36;;;;;;;8.85;4.25;;;26.10;31.00;;;;;;5053101;28;20131;-75
2023/09/17 07:31:07;;;;;;;7.32;2.83;;;26.00;31.60;;;;;;5069066;28;20475;-75
2023/09/17 07:33:34;;;;;;;5.85;2.53;;;25.90;32.10;;;;;;5069758;28;20072;-75
2023/09/17 07:36:02;;;;;;;4.70;2.22;;;25.80;32.50;;;;;;5068344;28;20036;-75
2023/09/17 07:38:29;;;;;;;4.70;2.00;;;25.70;32.90;;;;;;5034872;28;20029;-75
2023/09/17 07:40:57;;;;;;;6.13;2.78;;;25.60;33.20;;;;;;5052987;28;20036;-75
2023/09/17 07:43:24;;;;;;;6.80;2.45;;;25.60;33.50;;;;;;5070800;28;20041;-75
2023/09/17 07:45:51;;;;;;;5.78;2.55;;;25.50;33.50;;;;;;5069136;28;20182;-75
2023/09/17 07:48:20;;;;;;;7.13;2.72;;;25.50;33.90;;;;;;5052814;28;20086;-75
2023/09/17 07:50:57;;;;;;;4.47;2.20;;;25.50;34.30;;;;;;5035473;28;20115;-74
2023/09/17 07:53:25;;;;;;;4.18;2.70;;;25.40;34.70;;;;;;5042725;28;20543;-75
2023/09/17 07:55:52;;;;;;;6.97;2.60;;;25.30;35.30;;;;;;5034152;28;20029;-77
2023/09/17 07:58:19;;;;;;;6.60;2.50;;;25.20;35.70;;;;;;5033428;28;20483;-75
2023/09/17 08:00:48;;;;;;;6.15;2.42;;;25.20;36.00;;;;;;5066478;28;20039;-76
2023/09/17 08:03:18;;;;;;;5.60;2.53;;;25.20;36.30;;;;;;5052722;28;20040;-77
2023/09/17 08:05:52;;;;;;;9.13;3.10;;;25.00;36.90;;;;;;5033890;28;20043;-78
2023/09/17 08:08:20;;;;;;;6.57;2.78;;;25.00;37.60;;;;;;5052707;28;20039;-76
2023/09/17 08:10:47;;;;;;;10.65;3.72;;;24.90;38.10;;;;;;5067971;28;20048;-74
2023/09/17 08:13:14;;;;;;;6.07;2.70;;;24.90;38.60;;;;;;5052028;28;20076;-76
2023/09/17 08:15:42;;;;;;;11.13;3.47;;;24.80;38.90;;;;;;5069682;28;20040;-81
2023/09/17 08:18:09;;;;;;;9.77;3.33;;;24.80;39.40;;;;;;5052323;28;20029;-76
2023/09/17 08:20:48;;;;;;;8.38;3.05;;;24.70;39.70;;;;;;5068863;28;20032;-74
2023/09/17 08:23:16;;;;;;;9.93;3.20;;;24.70;40.40;;;;;;5051428;28;20391;-77
2023/09/17 08:25:43;;;;;;;7.13;2.92;;;24.60;40.90;;;;;;5068511;28;20691;-74
2023/09/17 08:28:13;;;;;;;11.25;3.20;;;24.60;41.00;;;;;;5069861;28;20044;-74
2023/09/17 08:30:40;;;;;;;8.48;3.20;;;24.50;41.20;;;;;;5034294;28;20094;-75
2023/09/17 08:33:11;;;;;;;9.73;3.72;;;24.50;41.40;;;;;;5049428;28;20068;-74
2023/09/17 08:35:38;;;;;;;12.48;3.90;;;24.40;42.30;;;;;;5067244;28;20040;-72
2023/09/17 08:38:06;;;;;;;10.38;4.20;;;24.40;42.50;;;;;;5066953;28;20040;-73
2023/09/17 08:40:35;;;;;;;14.30;4.38;;;24.30;43.00;;;;;;5067217;28;20028;-74
2023/09/17 08:43:04;;;;;;;9.77;3.30;;;24.30;43.00;;;;;;5069848;28;20055;-74
2023/09/17 08:45:32;;;;;;;10.82;3.33;;;24.30;42.70;;;;;;5035646;28;20024;-75
2023/09/17 08:47:59;;;;;;;14.82;3.72;;;24.30;42.70;;;;;;5030783;28;20713;-77
2023/09/17 08:50:31;;;;;;;12.02;3.55;;;24.20;42.90;;;;;;5016003;28;20053;-79
2023/09/17 08:53:00;;;;;;;8.40;3.33;;;24.20;43.40;;;;;;5030887;28;20246;-75
2023/09/17 08:55:27;;;;;;;10.35;3.40;;;24.10;43.60;;;;;;5067781;28;20040;-72
2023/09/17 08:58:04;;;;;;;10.50;3.90;;;24.10;44.10;;;;;;5050966;28;20043;-72
2023/09/17 09:00:32;;;;;;;20.60;5.35;;;24.00;44.20;;;;;;5051861;28;20024;-72
2023/09/17 09:03:03;;;;;;;8.77;3.85;;;24.00;44.70;;;;;;5049514;28;20574;-72
2023/09/17 09:05:31;;;;;;;10.52;3.83;;;24.00;44.90;;;;;;5017408;28;20438;-74
2023/09/17 09:07:58;;;;;;;8.45;3.70;;;23.90;45.20;;;;;;5051049;28;20157;-76
2023/09/17 09:10:25;;;;;;;13.80;4.18;;;23.80;45.40;;;;;;5035293;28;20040;-73
2023/09/17 09:12:53;;;;;;;13.07;4.45;;;23.80;45.20;;;;;;5035214;28;20114;-72
2023/09/17 09:15:20;;;;;;;8.32;4.20;;;23.70;45.30;;;;;;5034571;28;20090;-74
2023/09/17 09:17:48;;;;;;;9.63;3.75;;;23.70;45.20;;;;;;5033605;28;20039;-75
2023/09/17 09:20:17;;;;;;;9.18;3.83;;;23.70;44.80;;;;;;5031403;28;20052;-76
2023/09/17 09:22:45;;;;;;;7.10;4.00;;;23.60;44.50;;;;;;5031794;28;20355;-75
2023/09/17 09:25:14;;;;;;;10.80;3.97;;;23.60;45.00;;;;;;5015498;28;20395;-76
2023/09/17 09:27:44;;;;;;;7.05;3.80;;;23.50;44.80;;;;;;5019034;28;20040;-75
2023/09/17 09:30:16;;;;;;;10.02;4.38;;;23.50;44.70;;;;;;5050941;28;20033;-76
2023/09/17 09:32:43;;;;;;;8.32;4.32;;;23.40;44.90;;;;;;5031093;28;20045;-74
2023/09/17 09:35:11;;;;;;;12.73;4.63;;;23.50;45.00;;;;;;5035949;28;20033;-77
2023/09/17 09:37:38;;;;;;;8.45;4.57;;;23.40;45.40;;;;;;5035334;28;20115;-76
2023/09/17 09:40:06;;;;;;;9.82;4.05;;;23.30;45.70;;;;;;5034458;28;20032;-74
2023/09/17 09:42:33;;;;;;;12.48;4.30;;;23.30;45.80;;;;;;5018480;28;20117;-75
2023/09/17 09:45:01;;;;;;;9.90;3.70;;;23.30;46.10;;;;;;5051088;28;20057;-73
2023/09/17 09:47:30;;;;;;;13.27;4.70;;;23.30;46.60;;;;;;5067219;28;20487;-76
2023/09/17 09:49:57;;;;;;;6.13;3.55;;;23.20;47.40;;;;;;5051079;28;20036;-75
2023/09/17 09:52:24;;;;;;;8.50;4.22;;;23.10;46.90;;;;;;5034521;28;20529;-77
2023/09/17 09:54:51;;;;;;;12.48;4.22;;;23.10;47.30;;;;;;5050442;28;20086;-74
2023/09/17 09:57:19;;;;;;;12.10;4.25;;;23.00;47.90;;;;;;5067705;28;20090;-78
2023/09/17 09:59:50;;;;;;;8.82;4.50;;;23.00;47.70;;;;;;5050193;28;20533;-74
2023/09/17 10:02:20;;;;;;;11.40;4.07;;;23.00;47.60;;;;;;5034445;28;20040;-75
2023/09/17 10:04:48;;;;;;;11.98;4.18;;;23.00;47.70;;;;;;5033339;28;20043;-79
2023/09/17 10:07:15;;;;;;;13.57;4.15;;;23.00;47.80;;;;;;5049527;28;20055;-75
2023/09/17 10:09:43;;;;;;;13.30;4.22;;;22.90;48.20;;;;;;5050741;28;20020;-74
2023/09/17 10:12:10;;;;;;;11.70;4.07;;;22.90;48.30;;;;;;5034301;28;20063;-81
2023/09/17 10:14:38;;;;;;;8.82;4.00;;;22.80;48.60;;;;;;5045590;28;20037;-76
2023/09/17 10:17:10;;;;;;;8.45;4.13;;;22.80;49.10;;;;;;5065012;28;20115;-74
2023/09/17 10:19:38;;;;;;;10.02;4.38;;;22.80;49.40;;;;;;5034149;28;20103;-76
2023/09/17 10:22:07;;;;;;;10.35;3.90;;;22.60;49.60;;;;;;5033241;28;20045;-79
2023/09/17 10:24:36;;;;;;;12.45;4.70;;;22.60;49.70;;;;;;5053021;28;20052;-77
2023/09/17 10:27:08;;;;;;;13.00;5.35;;;22.60;50.10;;;;;;5054040;28;20434;-74
2023/09/17 10:29:43;;;;;;;12.43;5.00;;;22.50;50.60;;;;;;5055021;28;20120;-74
2023/09/17 10:32:10;;;;;;;12.43;5.28;;;22.40;51.40;;;;;;5071098;28;20032;-74
2023/09/17 10:34:37;;;;;;;14.35;5.70;;;22.30;51.90;;;;;;5037865;28;20070;-73
2023/09/17 10:37:05;;;;;;;15.60;5.60;;;22.30;52.10;;;;;;5072129;28;20106;-75
2023/09/17 10:39:35;;;;;;;13.15;5.25;;;22.30;52.40;;;;;;5037333;28;20044;-75
2023/09/17 10:42:03;;;;;;;12.55;4.85;;;22.30;52.50;;;;;;5032167;28;20068;-75
2023/09/17 10:44:30;;;;;;;17.13;4.53;;;22.20;52.60;;;;;;5034307;28;20029;-75
2023/09/17 10:47:00;;;;;;;12.93;5.07;;;22.20;52.00;;;;;;5052236;28;20494;-80
2023/09/17 10:49:27;;;;;;;;;;;22.10;52.80;;;;;;5022797;28;20045;-75
2023/09/17 10:51:54;;;;;;;13.73;5.22;;;22.00;52.50;;;;;;5053144;28;19916;-75
2023/09/17 10:54:21;;;;;;;12.50;5.05;;;22.10;52.70;;;;;;5052682;28;20039;-72
2023/09/17 10:56:49;;;;;;;11.05;4.78;;;22.10;52.70;;;;;;5051444;28;20036;-73
2023/09/17 10:59:17;;;;;;;14.65;5.13;;;22.00;53.30;;;;;;5036312;28;20036;-73
2023/09/17 11:01:45;;;;;;;10.48;4.70;;;22.00;52.80;;;;;;5036420;28;20090;-75
2023/09/17 11:04:16;;;;;;;14.23;4.90;;;22.00;52.60;;;;;;5053170;28;20508;-76
2023/09/17 11:06:45;;;;;;;12.05;4.43;;;22.00;52.60;;;;;;5034352;28;20040;-74
2023/09/17 11:09:12;;;;;;;10.95;4.55;;;22.00;52.50;;;;;;5036601;28;20414;-76
2023/09/17 11:11:40;;;;;;;7.57;4.32;;;22.00;52.00;;;;;;5036125;28;20040;-76
2023/09/17 11:14:08;;;;;;;7.93;4.70;;;21.90;51.80;;;;;;5052005;28;20049;-76
2023/09/17 11:16:35;;;;;;;8.88;4.50;;;21.70;53.60;;;;;;5036351;28;20033;-76
2023/09/17 11:19:22;;;;;;;10.55;4.65;;;21.70;53.70;;;;;;5036605;28;20127;-76
2023/09/17 11:21:52;;;;;;;11.63;4.65;;;21.50;54.10;;;;;;5053316;28;20061;-73
2023/09/17 11:24:22;;;;;;;12.25;4.50;;;21.50;54.00;;;;;;5051882;28;20058;-75
2023/09/17 11:26:50;;;;;;;11.70;4.85;;;21.50;53.80;;;;;;5051035;28;20032;-75
2023/09/17 11:29:17;;;;;;;8.85;4.38;;;21.50;54.10;;;;;;5069429;28;20046;-74
2023/09/17 11:31:53;;;;;;;10.50;4.40;;;21.40;54.30;;;;;;5070628;28;20163;-74
2023/09/17 13:31:28;;;;;;;22.42;4.15;;;20.40;78.10;;;;;;5047982;28;20130;-74
2023/09/17 13:33:55;;;;;;;20.33;4.20;;;20.40;79.40;;;;;;5052126;28;20060;-75
2023/09/17 13:36:23;;;;;;;23.42;4.85;;;20.30;79.80;;;;;;5037707;28;20116;-74
2023/09/17 13:38:50;;;;;;;18.05;3.90;;;20.30;80.50;;;;;;5053531;28;20116;-74
2023/09/17 13:41:23;;;;;;;22.38;4.05;;;20.30;80.50;;;;;;5037750;28;20037;-75
2023/09/17 13:43:50;;;;;;;21.75;3.78;;;20.20;81.20;;;;;;5036953;28;20056;-74
2023/09/17 13:46:17;;;;;;;25.65;4.78;;;20.20;82.30;;;;;;5071973;28;20035;-74
2023/09/17 13:48:45;;;;;;;24.35;4.47;;;20.20;82.50;;;;;;5036640;28;20487;-74
2023/09/17 13:51:12;;;;;;;27.90;4.78;;;20.10;82.80;;;;;;5054365;28;20039;-75
2023/09/17 13:53:39;;;;;;;25.35;4.72;;;20.10;83.00;;;;;;5037186;28;20090;-74
2023/09/17 13:56:07;;;;;;;25.13;4.65;;;20.10;83.20;;;;;;5071487;28;20025;-74
2023/09/17 13:58:34;;;;;;;23.88;5.03;;;20.10;83.10;;;;;;5071128;28;20368;-74
2023/09/17 14:01:01;;;;;;;23.05;5.05;;;20.00;83.10;;;;;;5057299;28;20071;-75
2023/09/17 14:03:29;;;;;;;22.77;4.25;;;20.00;83.40;;;;;;5075877;28;20032;-74
2023/09/17 14:05:57;;;;;;;25.85;4.57;;;20.00;83.40;;;;;;5056925;28;20086;-75
2023/09/17 14:08:25;;;;;;;25.77;5.50;;;19.90;83.90;;;;;;5074303;28;20138;-74
2023/09/17 14:10:52;;;;;;;27.83;4.70;;;19.90;84.20;;;;;;5057538;28;20429;-75
2023/09/17 14:13:19;;;;;;;20.83;4.35;;;19.90;84.20;;;;;;5056129;28;20040;-75
2023/09/17 14:15:46;;;;;;;26.70;5.25;;;19.80;84.70;;;;;;5074020;28;20125;-75
2023/09/17 14:18:16;;;;;;;22.27;4.47;;;19.80;84.30;;;;;;5085128;28;20036;-74
2023/09/17 14:20:43;;;;;;;33.05;5.38;;;19.80;84.70;;;;;;5095577;28;20036;-75
2023/09/17 14:23:11;;;;;;;23.95;4.97;;;19.80;84.70;;;;;;5077656;28;20394;-75
2023/09/17 14:25:38;;;;;;;28.17;4.82;;;19.70;84.90;;;;;;5077152;28;20033;-75
2023/09/17 14:28:06;;;;;;;30.17;4.50;;;19.70;85.20;;;;;;5074337;28;20083;-74
2023/09/17 14:30:34;;;;;;;26.48;5.10;;;19.70;85.00;;;;;;5040667;28;20441;-75
2023/09/17 14:33:01;;;;;;;26.98;5.05;;;19.70;85.20;;;;;;5040836;28;20540;-74
2023/09/17 14:35:28;;;;;;;27.50;5.20;;;19.60;85.50;;;;;;5075136;28;20059;-74
2023/09/17 14:37:55;;;;;;;27.08;5.07;;;19.60;85.70;;;;;;5074078;28;20391;-74
2023/09/17 14:40:23;;;;;;;23.20;4.55;;;19.70;85.40;;;;;;5055870;28;20332;-74
2023/09/17 14:42:50;;;;;;;24.42;4.43;;;19.60;85.30;;;;;;5074691;28;20116;-75
2023/09/17 14:45:21;;;;;;;28.48;4.57;;;19.60;85.50;;;;;;5074905;28;20028;-75
2023/09/17 14:47:49;;;;;;;24.95;5.03;;;19.50;85.80;;;;;;5055641;28;20068;-74
2023/09/17 14:50:17;;;;;;;23.25;4.93;;;19.50;86.00;;;;;;5075023;28;20383;-75
2023/09/17 14:52:44;;;;;;;26.02;5.05;;;19.50;85.80;;;;;;5074468;28;20450;-75
2023/09/17 14:55:12;;;;;;;27.48;4.63;;;19.50;85.80;;;;;;5074315;28;20052;-74
2023/09/17 14:57:40;;;;;;;27.70;6.03;;;19.40;85.90;;;;;;5035856;28;20546;-75
2023/09/17 15:00:13;;;;;;;24.35;4.97;;;19.40;86.00;;;;;;5066212;28;20033;-74
2023/09/17 19:25:53;;;;;;;19.63;4.13;;;16.80;86.60;;;;;;5056710;28;20065;-76
2023/09/17 19:28:20;;;;;;;19.92;4.30;;;16.70;86.60;;;;;;5071476;28;20398;-77
2023/09/17 19:30:47;;;;;;;20.02;4.18;;;16.70;86.30;;;;;;5071538;28;20035;-77
2023/09/17 19:33:15;;;;;;;15.43;4.30;;;16.60;86.30;;;;;;5055412;28;20028;-77
2023/09/17 19:35:42;;;;;;;15.52;4.47;;;16.60;85.80;;;;;;5056470;28;20036;-77
2023/09/17 19:38:09;;;;;;;18.45;4.40;;;16.50;85.10;;;;;;5055073;28;20120;-77
2023/09/17 19:40:37;;;;;;;17.95;3.90;;;16.50;85.00;;;;;;5022744;28;20052;-77
2023/09/17 19:43:04;;;;;;;18.00;3.97;;;16.40;84.70;;;;;;5072909;28;20056;-76
2023/09/17 19:45:31;;;;;;;19.48;4.45;;;16.40;84.10;;;;;;5056213;28;20033;-77
2023/09/17 19:48:03;;;;;;;18.75;4.18;;;16.40;83.30;;;;;;5073709;28;20498;-76
2023/09/17 19:50:31;;;;;;;15.43;4.07;;;16.40;82.60;;;;;;5056274;28;20068;-76
2023/09/17 19:52:59;;;;;;;13.65;4.13;;;16.30;82.40;;;;;;5055259;28;20503;-77
2023/09/17 19:55:26;;;;;;;15.02;3.92;;;16.30;82.70;;;;;;5073353;28;20036;-76
2023/09/17 19:57:53;;;;;;;19.30;4.53;;;16.40;82.80;;;;;;5072152;28;20498;-77
2023/09/17 20:00:20;;;;;;;16.45;4.05;;;16.40;82.50;;;;;;5054338;28;20482;-77
2023/09/17 20:02:48;;;;;;;16.23;4.05;;;16.30;82.40;;;;;;5056057;28;20037;-76
2023/09/17 20:05:15;;;;;;;16.40;4.00;;;16.20;82.10;;;;;;5055986;28;20029;-77
2023/09/17 20:07:42;;;;;;;17.65;4.10;;;16.10;82.10;;;;;;5071981;28;20076;-76
2023/09/17 20:10:16;;;;;;;16.13;3.75;;;16.10;81.30;;;;;;5072741;28;20032;-76
2023/09/17 20:12:45;;;;;;;12.57;4.15;;;16.10;80.10;;;;;;5038790;28;20414;-76
2023/09/17 20:15:17;;;;;;;15.40;4.75;;;16.10;80.30;;;;;;5039618;28;20479;-76
2023/09/17 20:17:44;;;;;;;17.15;3.80;;;16.20;79.80;;;;;;5071256;28;20098;-76
2023/09/17 20:20:12;;;;;;;14.88;3.90;;;16.20;79.80;;;;;;5038734;28;20029;-76
2023/09/17 20:22:45;;;;;;;13.23;4.20;;;16.20;80.20;;;;;;5055486;28;20040;-76
2023/09/17 20:25:14;;;;;;;12.07;3.60;;;16.20;79.70;;;;;;5038991;28;20124;-76
2023/09/17 21:25:45;;;;;;;11.35;3.38;;;17.40;66.30;;;;;;5063512;28;20133;-75
2023/09/17 21:28:12;;;;;;;9.18;3.20;;;17.50;67.50;;;;;;5034619;28;20049;-75
2023/09/17 21:30:43;;;;;;;11.75;3.47;;;17.60;67.50;;;;;;5071501;28;20033;-75
2023/09/17 21:33:10;;;;;;;8.88;3.58;;;17.70;68.20;;;;;;5038121;28;20032;-76
2023/09/17 21:35:37;;;;;;;12.50;2.92;;;17.70;67.00;;;;;;5053229;28;20128;-76
2023/09/17 21:38:04;;;;;;;9.43;2.72;;;17.70;66.60;;;;;;5070540;28;20063;-76
2023/09/17 21:40:32;;;;;;;7.53;2.80;;;17.80;67.00;;;;;;5071536;28;20036;-77
2023/09/17 21:42:59;;;;;;;10.05;3.10;;;17.80;65.50;;;;;;5071600;28;20024;-78
2023/09/17 21:45:26;;;;;;;14.48;3.42;;;18.00;66.30;;;;;;5070661;28;20115;-75
2023/09/17 21:47:54;;;;;;;5.82;3.10;;;18.00;64.40;;;;;;5071291;28;20060;-76
2023/09/17 21:50:21;;;;;;;8.35;2.83;;;18.10;65.10;;;;;;5071503;28;20551;-75
2023/09/17 21:52:49;;;;;;;9.10;2.70;;;18.20;63.20;;;;;;5053768;28;20486;-76
2023/09/17 21:55:16;;;;;;;9.93;2.63;;;18.20;63.80;;;;;;5070713;28;20044;-76
2023/09/17 21:57:43;;;;;;;7.70;2.72;;;18.20;60.80;;;;;;5053207;28;20422;-75
2023/09/17 22:00:21;;;;;;;6.35;2.72;;;18.30;60.80;;;;;;5051638;28;20056;-75
2023/09/17 22:02:52;;;;;;;7.68;2.50;;;18.30;59.60;;;;;;5035371;28;20454;-76
2023/09/17 22:05:20;;;;;;;7.05;2.53;;;18.30;59.90;;;;;;5033282;28;20037;-76
2023/09/17 22:07:47;;;;;;;7.47;2.50;;;18.40;59.80;;;;;;5033389;28;20052;-76
2023/09/17 22:10:15;;;;;;;10.55;2.80;;;18.50;58.90;;;;;;5051572;28;20053;-76
2023/09/17 22:12:43;;;;;;;7.07;2.50;;;18.50;59.20;;;;;;5051525;28;20024;-76
2023/09/17 22:15:10;;;;;;;13.57;3.05;;;18.60;58.70;;;;;;5050617;28;20049;-75
2023/09/17 22:17:37;;;;;;;8.50;2.95;;;18.70;58.00;;;;;;5050475;28;20032;-76
2023/09/17 22:20:14;;;;;;;5.70;2.70;;;18.70;58.00;;;;;;5052238;28;20029;-76
2023/09/17 22:22:42;;;;;;;8.18;2.60;;;18.70;57.50;;;;;;5055247;28;20037;-76
2023/09/17 22:25:10;;;;;;;6.53;2.78;;;18.80;57.30;;;;;;5055394;28;20119;-76
2023/09/17 22:27:37;;;;;;;5.95;2.70;;;18.90;57.00;;;;;;5037132;28;20049;-76
2023/09/17 22:30:06;;;;;;;7.22;2.85;;;18.90;56.80;;;;;;5055069;28;20110;-76
2023/09/17 22:32:35;;;;;;;9.30;3.30;;;19.00;56.50;;;;;;5055301;28;20491;-76
2023/09/17 22:35:08;;;;;;;6.78;2.88;;;19.00;56.30;;;;;;5037444;28;20037;-76
2023/09/17 22:37:35;;;;;;;9.57;2.15;;;19.10;56.10;;;;;;5055072;28;20044;-75
2023/09/17 22:40:07;;;;;;;8.82;2.55;;;19.20;55.80;;;;;;5054892;28;20155;-75
2023/09/17 22:42:35;;;;;;;7.35;2.40;;;19.30;55.60;;;;;;5054987;28;20029;-76
2023/09/17 22:45:04;;;;;;;7.13;2.58;;;19.30;55.30;;;;;;5054863;28;20029;-76
2023/09/17 22:47:34;;;;;;;5.97;2.35;;;19.40;55.20;;;;;;5036772;28;20048;-75
2023/09/17 22:50:02;;;;;;;4.20;2.45;;;19.40;55.00;;;;;;5021510;28;20041;-75
2023/09/17 22:52:30;;;;;;;6.28;2.78;;;19.50;54.70;;;;;;5037300;28;20391;-75
2023/09/17 22:54:57;;;;;;;10.38;2.95;;;19.60;54.60;;;;;;5054554;28;20037;-76
